Time;durP1;ratioP1;P1;durP2;ratioP2;P2;SDS_P1;SDS_P2;PMS_P1;PMS_P2;Temp;Humidity;BMP_temperature;BMP_pressure;BME280_temperature;BME280_humidity;BME280_pressure;Samples;Min_cycle;Max_cycle;Signal;HPM_P1;HPM_P2
2022/05/07 00:00:31;;;;;;;19.00;14.63;;;12.90;99.90;;;;;;5036058;28;20123;-74
2022/05/07 00:02:56;;;;;;;18.50;15.15;;;12.90;99.90;;;;;;5051643;28;20048;-74
2022/05/07 00:05:22;;;;;;;21.02;15.50;;;12.80;99.90;;;;;;5052765;28;20501;-74
2022/05/07 00:07:48;;;;;;;19.65;15.02;;;12.90;99.90;;;;;;5052752;28;20072;-74
2022/05/07 00:10:14;;;;;;;15.85;12.68;;;12.80;99.90;;;;;;5051369;28;20037;-74
2022/05/07 00:12:40;;;;;;;22.67;17.75;;;12.80;99.90;;;;;;5052465;28;20094;-75
2022/05/07 00:15:07;;;;;;;22.42;17.98;;;12.80;99.90;;;;;;5052540;28;20540;-75
2022/05/07 00:20:17;;;;;;;19.20;15.80;;;12.80;99.90;;;;;;5052347;28;20052;-74
2022/05/07 00:22:43;;;;;;;18.27;14.40;;;12.90;99.90;;;;;;5035688;28;20072;-74
2022/05/07 00:25:09;;;;;;;21.67;17.65;;;12.90;99.90;;;;;;5052444;28;20047;-74
2022/05/07 00:27:35;;;;;;;21.50;17.85;;;12.80;99.90;;;;;;5051263;28;20041;-74
2022/05/07 00:30:01;;;;;;;21.48;17.42;;;12.80;99.90;;;;;;5052279;28;20037;-74
2022/05/07 00:32:27;;;;;;;22.77;18.63;;;12.80;99.90;;;;;;5035917;28;20051;-74
2022/05/07 00:34:52;;;;;;;21.77;17.77;;;12.80;99.90;;;;;;5034365;28;20061;-75
2022/05/07 00:37:18;;;;;;;22.02;17.75;;;12.80;99.90;;;;;;5052157;28;20087;-75
2022/05/07 00:39:43;;;;;;;21.08;17.02;;;12.70;99.90;;;;;;5035518;28;20044;-75
2022/05/07 00:42:09;;;;;;;20.58;16.55;;;12.80;99.90;;;;;;5051158;28;20047;-74
2022/05/07 00:44:35;;;;;;;21.92;16.40;;;12.80;99.90;;;;;;5049998;28;20069;-74
2022/05/07 00:47:22;;;;;;;21.02;18.15;;;13.00;99.90;;;;;;5051965;28;20048;-73
2022/05/07 00:49:49;;;;;;;22.88;17.98;;;13.00;99.90;;;;;;5035160;28;20033;-74
2022/05/07 00:52:17;;;;;;;25.08;18.67;;;12.90;99.90;;;;;;5034574;28;20045;-74
2022/05/07 00:54:45;;;;;;;23.88;19.10;;;12.90;99.90;;;;;;5035378;28;20057;-74
2022/05/07 00:57:13;;;;;;;26.55;21.27;;;13.00;99.90;;;;;;5051986;28;20045;-74
2022/05/07 00:59:39;;;;;;;26.48;20.38;;;13.10;99.90;;;;;;5034222;28;20048;-74
2022/05/07 01:02:04;;;;;;;21.35;19.02;;;13.20;99.90;;;;;;5035010;28;20040;-73
2022/05/07 01:04:30;;;;;;;23.02;18.38;;;13.10;99.90;;;;;;5052113;28;20064;-74
2022/05/07 01:06:56;;;;;;;23.00;18.48;;;13.00;99.90;;;;;;5050713;28;20037;-74
2022/05/07 01:09:22;;;;;;;24.95;18.50;;;13.00;99.90;;;;;;5051631;28;20036;-74
2022/05/07 01:11:48;;;;;;;21.15;17.67;;;13.00;99.90;;;;;;5052389;28;20033;-73
2022/05/07 01:14:13;;;;;;;23.05;18.30;;;13.00;99.90;;;;;;5055871;28;20048;-74
2022/05/07 01:16:39;;;;;;;27.40;20.20;;;13.00;99.90;;;;;;5054801;28;20037;-74
2022/05/07 01:19:05;;;;;;;25.48;19.05;;;13.00;99.90;;;;;;5054743;28;20048;-74
2022/05/07 01:21:30;;;;;;;25.40;19.38;;;13.00;99.90;;;;;;5055675;28;20045;-74
2022/05/07 01:23:56;;;;;;;20.30;16.67;;;12.90;99.90;;;;;;5056060;28;20044;-74
2022/05/07 01:26:23;;;;;;;21.88;17.30;;;13.00;99.90;;;;;;5054639;28;20508;-74
2022/05/07 01:28:50;;;;;;;20.45;17.70;;;13.00;99.90;;;;;;5055638;28;20037;-74
2022/05/07 01:31:16;;;;;;;20.30;16.92;;;13.00;99.90;;;;;;5055544;28;20037;-74
2022/05/07 01:33:42;;;;;;;21.70;17.48;;;13.10;99.90;;;;;;5037858;28;20121;-73
2022/05/07 01:36:11;;;;;;;21.73;16.52;;;13.00;99.90;;;;;;5038514;28;20441;-74
2022/05/07 01:38:37;;;;;;;21.10;17.27;;;13.00;99.90;;;;;;5055484;28;20049;-74
2022/05/07 01:41:03;;;;;;;21.38;17.92;;;12.90;99.90;;;;;;5054907;28;20393;-74
2022/05/07 01:43:32;;;;;;;22.25;17.20;;;12.90;99.90;;;;;;5069200;28;20037;-74
2022/05/07 01:45:58;;;;;;;21.02;16.80;;;12.90;99.90;;;;;;5054367;28;20037;-74
2022/05/07 01:48:24;;;;;;;24.20;19.60;;;12.90;99.90;;;;;;5054648;28;20029;-73
2022/05/07 01:50:50;;;;;;;23.58;17.70;;;12.90;99.90;;;;;;5038847;28;20029;-73
2022/05/07 01:53:15;;;;;;;24.92;18.58;;;12.90;99.90;;;;;;5054221;28;20381;-74
2022/05/07 01:55:41;;;;;;;25.08;20.35;;;12.90;99.90;;;;;;5038576;28;20037;-73
2022/05/07 01:58:07;;;;;;;22.27;18.58;;;12.90;99.90;;;;;;5037616;28;20072;-74
2022/05/07 02:00:34;;;;;;;24.83;19.85;;;12.90;99.90;;;;;;5038414;28;20044;-74
2022/05/07 02:03:00;;;;;;;24.77;19.52;;;13.00;99.90;;;;;;5053768;28;20047;-74
2022/05/07 02:05:28;;;;;;;26.80;19.50;;;13.00;99.90;;;;;;5038570;28;20127;-74
2022/05/07 02:07:54;;;;;;;24.15;20.10;;;13.10;99.90;;;;;;5054778;28;20037;-74
2022/05/07 02:10:21;;;;;;;25.13;20.13;;;13.10;99.90;;;;;;5038237;28;20029;-74
2022/05/07 02:12:47;;;;;;;23.45;19.15;;;13.10;99.90;;;;;;5037467;28;20049;-74
2022/05/07 02:15:13;;;;;;;21.23;17.48;;;13.00;99.90;;;;;;5036418;28;20044;-74
2022/05/07 02:17:38;;;;;;;23.17;19.00;;;13.00;99.90;;;;;;5053954;28;20460;-74
2022/05/07 02:20:05;;;;;;;22.95;19.02;;;13.00;99.90;;;;;;5054726;28;20045;-73
2022/05/07 02:22:31;;;;;;;23.70;18.33;;;13.00;99.90;;;;;;5037138;28;20048;-74
2022/05/07 02:24:58;;;;;;;20.77;17.13;;;13.10;99.90;;;;;;5053448;28;20497;-74
2022/05/07 02:27:24;;;;;;;23.88;19.20;;;13.10;99.90;;;;;;5053746;28;20037;-73
2022/05/07 02:29:49;;;;;;;22.05;18.58;;;13.10;99.90;;;;;;5052908;28;20043;-73
2022/05/07 02:32:15;;;;;;;23.23;18.48;;;13.10;99.90;;;;;;5053364;28;20419;-73
2022/05/07 02:34:42;;;;;;;22.40;18.20;;;13.10;99.90;;;;;;5054451;28;20060;-73
2022/05/07 02:37:08;;;;;;;23.95;18.92;;;13.10;99.90;;;;;;5053547;28;20076;-73
2022/05/07 02:39:33;;;;;;;24.02;18.80;;;13.20;99.90;;;;;;5038110;28;20434;-73
2022/05/07 02:44:44;;;;;;;21.50;18.30;;;13.10;99.90;;;;;;5036237;28;21600;-73
2022/05/07 02:47:10;;;;;;;21.77;18.35;;;13.10;99.90;;;;;;5060144;28;20127;-74
2022/05/07 02:49:35;;;;;;;22.00;18.42;;;13.10;99.90;;;;;;5039718;28;20123;-74
2022/05/07 02:52:01;;;;;;;24.30;18.45;;;13.10;99.90;;;;;;5052776;28;20041;-73
2022/05/07 02:54:27;;;;;;;21.85;19.48;;;13.20;99.90;;;;;;5036570;28;20504;-73
2022/05/07 02:56:55;;;;;;;23.15;19.65;;;13.20;99.90;;;;;;5053714;28;20041;-74
2022/05/07 02:59:20;;;;;;;21.60;18.52;;;13.10;99.90;;;;;;5053665;28;20040;-75
2022/05/07 03:01:46;;;;;;;22.20;18.75;;;13.00;99.90;;;;;;5054869;28;20044;-74
2022/05/07 03:04:11;;;;;;;21.25;17.63;;;13.00;99.90;;;;;;5061373;28;20524;-74
2022/05/07 03:06:37;;;;;;;23.48;18.63;;;13.00;99.90;;;;;;5036355;28;20036;-74
2022/05/07 03:09:04;;;;;;;22.90;18.85;;;13.00;99.90;;;;;;5036436;28;20036;-74
2022/05/07 03:11:33;;;;;;;22.33;18.40;;;12.90;99.90;;;;;;5052555;28;20036;-73
2022/05/07 03:13:59;;;;;;;22.10;18.30;;;13.00;99.90;;;;;;5051743;28;20118;-73
2022/05/07 03:16:24;;;;;;;21.45;18.50;;;13.00;99.90;;;;;;5052839;28;20076;-73
2022/05/07 03:18:50;;;;;;;25.63;19.30;;;13.00;99.90;;;;;;5034895;28;20501;-74
2022/05/07 03:21:16;;;;;;;22.58;17.70;;;13.00;99.90;;;;;;5035421;28;20065;-74
2022/05/07 03:23:42;;;;;;;21.13;18.38;;;13.00;99.90;;;;;;5067434;28;20489;-74
2022/05/07 03:26:08;;;;;;;22.05;17.80;;;13.00;99.90;;;;;;5051813;28;20053;-74
2022/05/07 03:28:33;;;;;;;20.50;17.92;;;12.90;99.90;;;;;;5052490;28;20033;-73
2022/05/07 03:31:00;;;;;;;22.75;17.88;;;12.90;99.90;;;;;;5052553;28;20378;-73
2022/05/07 03:33:25;;;;;;;21.80;18.60;;;12.90;99.90;;;;;;5051410;28;20047;-73
2022/05/07 03:35:51;;;;;;;21.27;17.90;;;12.90;99.90;;;;;;5035201;28;20495;-73
2022/05/07 03:38:17;;;;;;;20.48;17.90;;;12.90;99.90;;;;;;5031491;28;20071;-73
2022/05/07 03:40:43;;;;;;;21.80;18.75;;;12.80;99.90;;;;;;5053442;28;20044;-74
2022/05/07 03:43:08;;;;;;;23.73;19.10;;;12.90;99.90;;;;;;5049250;28;20072;-74
2022/05/07 03:45:34;;;;;;;22.25;18.40;;;12.80;99.90;;;;;;5031677;28;20072;-74
2022/05/07 03:47:59;;;;;;;22.17;18.48;;;12.80;99.90;;;;;;5063536;28;20064;-74
2022/05/07 03:50:25;;;;;;;20.80;18.58;;;12.80;99.90;;;;;;5072965;28;20032;-74
2022/05/07 03:55:41;;;;;;;20.50;17.70;;;12.80;99.90;;;;;;5037709;28;20076;-74
2022/05/07 03:58:17;;;;;;;22.05;18.30;;;12.80;99.90;;;;;;5052161;28;20036;-74
2022/05/07 04:00:43;;;;;;;21.40;18.88;;;12.80;99.90;;;;;;5051797;28;20558;-74
2022/05/07 04:03:10;;;;;;;22.48;18.90;;;12.80;99.90;;;;;;5050903;28;20493;-74
2022/05/07 04:05:35;;;;;;;21.83;19.52;;;12.70;99.90;;;;;;5036094;28;20124;-74
2022/05/07 04:08:01;;;;;;;24.05;20.73;;;12.70;99.90;;;;;;5035075;28;20128;-74
2022/05/07 04:10:26;;;;;;;24.35;21.02;;;12.70;99.90;;;;;;5063909;28;20040;-74
2022/05/07 04:12:52;;;;;;;23.00;20.42;;;12.60;99.90;;;;;;5054991;28;20037;-74
2022/05/07 04:15:18;;;;;;;24.00;21.23;;;12.50;99.90;;;;;;5060757;28;20037;-74
2022/05/07 04:17:44;;;;;;;21.27;18.98;;;12.50;99.90;;;;;;5034887;28;20421;-74
2022/05/07 04:20:11;;;;;;;23.20;19.95;;;12.50;99.90;;;;;;5067139;28;20041;-74
2022/05/07 04:22:37;;;;;;;24.08;19.92;;;12.40;99.90;;;;;;5034123;28;20044;-74
2022/05/07 04:25:04;;;;;;;21.42;19.13;;;12.40;99.90;;;;;;5035079;28;20041;-74
2022/05/07 04:27:29;;;;;;;23.73;19.90;;;12.40;99.90;;;;;;5051274;28;20040;-74
2022/05/07 04:29:57;;;;;;;22.52;18.52;;;12.50;99.90;;;;;;5034335;28;20037;-74
2022/05/07 04:32:22;;;;;;;21.90;19.40;;;12.50;99.90;;;;;;5034998;28;20466;-74
2022/05/07 04:34:48;;;;;;;22.58;19.80;;;12.50;99.90;;;;;;5051100;28;20093;-74
2022/05/07 04:37:13;;;;;;;25.20;21.85;;;12.50;99.90;;;;;;5034769;28;20076;-74
2022/05/07 04:39:39;;;;;;;28.02;22.13;;;12.50;99.90;;;;;;5034699;28;20036;-74
2022/05/07 04:42:05;;;;;;;25.40;22.05;;;12.50;99.90;;;;;;5050902;28;20040;-74
2022/05/07 04:44:30;;;;;;;25.75;22.25;;;12.50;99.90;;;;;;5036511;28;20029;-74
2022/05/07 04:46:57;;;;;;;26.92;22.38;;;12.50;99.90;;;;;;5060046;28;20037;-74
2022/05/07 04:49:23;;;;;;;25.40;22.27;;;12.50;99.90;;;;;;5063879;28;20075;-74
2022/05/07 04:51:50;;;;;;;30.52;22.85;;;12.50;99.90;;;;;;5033338;28;20531;-74
2022/05/07 04:54:19;;;;;;;27.65;23.15;;;12.50;99.90;;;;;;5042892;28;20041;-73
2022/05/07 04:56:46;;;;;;;24.65;21.98;;;12.50;99.90;;;;;;5050598;28;20493;-74
2022/05/07 04:59:16;;;;;;;26.05;23.25;;;12.50;99.90;;;;;;5072190;28;20127;-74
2022/05/07 05:01:42;;;;;;;25.67;22.27;;;12.50;99.90;;;;;;5062022;28;20044;-74
2022/05/07 05:04:09;;;;;;;28.10;23.17;;;12.50;99.90;;;;;;5050352;28;20473;-74
2022/05/07 05:06:35;;;;;;;24.65;21.13;;;12.50;99.90;;;;;;5033216;28;20044;-73
2022/05/07 05:09:01;;;;;;;25.02;21.27;;;12.50;99.90;;;;;;5050895;28;20041;-74
2022/05/07 05:11:26;;;;;;;26.30;22.52;;;12.60;99.90;;;;;;5049957;28;20036;-74
2022/05/07 05:13:52;;;;;;;23.38;20.88;;;12.50;99.90;;;;;;5070131;28;20401;-74
2022/05/07 05:16:18;;;;;;;24.08;21.48;;;12.60;99.90;;;;;;5067840;28;20105;-74
2022/05/07 05:18:44;;;;;;;24.85;22.02;;;12.60;99.90;;;;;;5050612;28;20151;-74
2022/05/07 05:21:10;;;;;;;23.83;21.17;;;12.60;99.90;;;;;;5037788;28;20040;-74
2022/05/07 05:23:35;;;;;;;24.52;21.65;;;12.60;99.90;;;;;;5049869;28;20044;-74
2022/05/07 05:26:01;;;;;;;26.08;22.25;;;12.70;99.90;;;;;;5050535;28;20033;-74
2022/05/07 05:28:26;;;;;;;26.10;21.85;;;12.80;99.90;;;;;;5050556;28;20041;-74
2022/05/07 05:30:52;;;;;;;24.83;20.27;;;12.80;99.90;;;;;;5033303;28;20033;-74
2022/05/07 05:33:21;;;;;;;25.55;22.45;;;12.80;99.90;;;;;;5035005;28;20127;-74
2022/05/07 05:35:47;;;;;;;25.88;22.48;;;12.80;99.90;;;;;;5049639;28;20061;-74
2022/05/07 05:38:15;;;;;;;24.85;20.92;;;12.90;99.90;;;;;;5033149;28;20124;-74
2022/05/07 05:40:41;;;;;;;26.90;21.75;;;12.90;99.90;;;;;;5050390;28;20072;-74
2022/05/07 05:43:07;;;;;;;25.67;22.65;;;12.90;99.90;;;;;;5049417;28;20068;-74
2022/05/07 05:45:33;;;;;;;26.05;22.65;;;12.90;99.90;;;;;;5041071;28;20028;-74
2022/05/07 05:48:01;;;;;;;26.25;23.45;;;13.00;99.90;;;;;;5056858;28;20455;-74
2022/05/07 05:50:28;;;;;;;25.83;22.23;;;13.00;99.90;;;;;;5048902;28;20041;-74
2022/05/07 05:52:54;;;;;;;26.88;22.85;;;13.00;99.90;;;;;;5050520;28;20132;-73
2022/05/07 05:55:19;;;;;;;25.67;21.80;;;13.10;99.90;;;;;;5033271;28;20132;-74
2022/05/07 05:57:45;;;;;;;24.30;21.63;;;13.10;99.90;;;;;;5043313;28;20094;-74
2022/05/07 06:00:11;;;;;;;27.33;20.70;;;13.30;99.90;;;;;;5053041;28;20047;-74
2022/05/07 06:02:37;;;;;;;24.92;21.70;;;13.50;99.90;;;;;;5037032;28;20059;-74
2022/05/07 06:05:04;;;;;;;26.35;21.88;;;13.80;99.90;;;;;;5054290;28;20111;-74
2022/05/07 06:07:29;;;;;;;25.27;21.30;;;13.80;99.90;;;;;;5053231;28;20099;-74
2022/05/07 06:09:55;;;;;;;27.50;21.98;;;13.70;99.90;;;;;;5054571;28;20045;-74
2022/05/07 06:12:21;;;;;;;24.23;20.17;;;13.70;99.90;;;;;;5053998;28;20132;-74
2022/05/07 06:14:47;;;;;;;26.92;22.42;;;13.60;99.90;;;;;;5052995;28;20052;-74
2022/05/07 06:17:13;;;;;;;25.00;22.15;;;13.70;99.90;;;;;;5047368;28;20045;-74
2022/05/07 06:19:39;;;;;;;24.55;21.70;;;13.70;99.90;;;;;;5051246;28;20041;-74
2022/05/07 06:22:04;;;;;;;23.52;21.00;;;13.80;99.90;;;;;;5036152;28;20409;-74
2022/05/07 06:27:29;;;;;;;25.20;21.55;;;13.70;99.90;;;;;;5054681;28;20062;-74
2022/05/07 06:29:59;;;;;;;26.45;22.17;;;13.70;99.90;;;;;;5037950;28;20064;-75
2022/05/07 06:32:38;;;;;;;25.10;21.27;;;13.80;99.90;;;;;;5054737;28;20374;-74
2022/05/07 06:35:09;;;;;;;26.23;23.45;;;13.80;99.90;;;;;;5054198;28;20084;-74
2022/05/07 06:37:37;;;;;;;25.52;22.90;;;13.80;99.90;;;;;;5054630;28;20399;-74
2022/05/07 06:40:04;;;;;;;25.77;22.95;;;13.80;99.90;;;;;;5054400;28;20048;-74
2022/05/07 06:42:30;;;;;;;26.60;22.08;;;13.80;99.90;;;;;;5037672;28;20044;-74
2022/05/07 06:44:56;;;;;;;25.25;22.58;;;13.80;99.90;;;;;;5054211;28;20064;-74
2022/05/07 06:47:22;;;;;;;26.35;22.50;;;13.80;99.90;;;;;;5054329;28;20497;-75
2022/05/07 06:49:47;;;;;;;26.23;23.35;;;13.80;99.90;;;;;;5037648;28;20041;-74
2022/05/07 06:52:13;;;;;;;26.02;22.73;;;13.90;99.90;;;;;;5037480;28;20037;-74
2022/05/07 06:54:39;;;;;;;26.83;23.05;;;13.90;99.90;;;;;;5054027;28;20452;-74
2022/05/07 06:57:04;;;;;;;24.73;20.92;;;14.00;99.90;;;;;;5054308;28;20136;-74
2022/05/07 06:59:31;;;;;;;25.90;21.15;;;14.20;99.90;;;;;;5054050;28;20041;-75
2022/05/07 07:01:57;;;;;;;26.30;23.33;;;14.20;99.90;;;;;;5037250;28;20103;-75
2022/05/07 07:04:23;;;;;;;25.90;21.52;;;14.30;99.90;;;;;;5053903;28;20041;-75
2022/05/07 07:06:50;;;;;;;25.90;22.40;;;14.40;99.90;;;;;;5037141;28;20489;-75
2022/05/07 07:09:16;;;;;;;25.42;21.75;;;14.40;99.90;;;;;;5036663;28;20036;-75
2022/05/07 07:11:41;;;;;;;24.42;20.85;;;14.50;99.90;;;;;;5037281;28;20452;-75
2022/05/07 07:14:07;;;;;;;26.17;21.02;;;14.50;99.90;;;;;;5037138;28;20064;-75
2022/05/07 07:16:32;;;;;;;26.23;20.52;;;14.60;99.90;;;;;;5053659;28;20091;-74
2022/05/07 07:18:58;;;;;;;24.33;21.27;;;14.70;99.90;;;;;;5036958;28;20033;-76
2022/05/07 07:21:23;;;;;;;23.27;20.42;;;14.70;99.90;;;;;;5037006;28;20040;-76
2022/05/07 07:23:49;;;;;;;27.10;21.98;;;14.90;99.90;;;;;;5048103;28;20037;-74
2022/05/07 07:26:15;;;;;;;23.45;19.10;;;15.00;99.90;;;;;;5051670;28;20060;-74
2022/05/07 07:28:41;;;;;;;24.08;20.40;;;15.10;99.90;;;;;;5052963;28;20048;-74
2022/05/07 07:31:08;;;;;;;25.75;22.52;;;15.20;99.90;;;;;;5053399;28;20036;-74
2022/05/07 07:33:34;;;;;;;25.98;22.73;;;15.30;99.90;;;;;;5051577;28;20071;-74
2022/05/07 07:36:00;;;;;;;25.10;21.10;;;15.30;99.90;;;;;;5048951;28;20057;-74
2022/05/07 07:38:26;;;;;;;23.58;20.15;;;15.40;99.90;;;;;;5026274;28;20074;-74
2022/05/07 07:40:52;;;;;;;24.00;21.45;;;15.50;99.90;;;;;;5051989;28;20037;-74
2022/05/07 07:43:18;;;;;;;24.88;19.42;;;15.50;99.90;;;;;;5040514;28;20470;-74
2022/05/07 07:48:30;;;;;;;23.10;18.33;;;15.60;99.90;;;;;;5051532;28;20120;-74
2022/05/07 07:50:55;;;;;;;22.38;18.90;;;15.60;99.90;;;;;;5053393;28;20048;-74
2022/05/07 07:53:24;;;;;;;21.88;19.27;;;15.70;99.90;;;;;;5047512;28;20037;-74
2022/05/07 07:55:50;;;;;;;23.05;18.30;;;15.70;99.90;;;;;;5050442;28;20446;-74
2022/05/07 07:58:16;;;;;;;24.88;19.90;;;15.60;99.90;;;;;;5051674;28;20119;-74
2022/05/07 08:00:44;;;;;;;21.10;18.83;;;15.60;99.90;;;;;;5053339;28;20164;-74
2022/05/07 08:03:15;;;;;;;23.05;18.33;;;15.70;99.90;;;;;;5051629;28;20400;-74
2022/05/07 08:05:43;;;;;;;22.92;17.83;;;15.60;99.90;;;;;;5051143;28;20503;-74
2022/05/07 08:13:40;;;;;;;24.88;22.17;;;15.60;99.90;;;;;;5051834;28;20057;-74
2022/05/07 08:16:09;;;;;;;26.00;21.50;;;15.70;99.90;;;;;;5050805;28;20417;-74
2022/05/07 08:18:36;;;;;;;24.77;22.08;;;15.60;99.90;;;;;;5055245;28;20098;-74
2022/05/07 08:21:02;;;;;;;25.38;19.98;;;15.80;99.90;;;;;;5051899;28;20083;-75
2022/05/07 08:23:28;;;;;;;22.17;19.77;;;15.90;99.90;;;;;;5051273;28;20048;-74
2022/05/07 08:25:54;;;;;;;25.23;21.42;;;16.00;99.90;;;;;;5035210;28;20037;-74
2022/05/07 08:28:20;;;;;;;23.92;21.40;;;16.20;99.90;;;;;;5045482;28;20036;-74
2022/05/07 08:30:49;;;;;;;23.67;20.23;;;16.30;99.90;;;;;;5051302;28;20044;-74
2022/05/07 08:33:17;;;;;;;23.83;21.08;;;16.30;99.90;;;;;;5034739;28;20040;-74
2022/05/07 08:35:43;;;;;;;24.25;21.27;;;16.40;99.90;;;;;;5050206;28;20417;-74
2022/05/07 08:38:09;;;;;;;25.48;20.17;;;16.30;99.90;;;;;;5036595;28;20052;-74
2022/05/07 08:40:34;;;;;;;22.10;19.38;;;16.30;99.90;;;;;;5051083;28;20132;-74
2022/05/07 08:43:02;;;;;;;22.60;18.80;;;16.40;99.90;;;;;;5035113;28;20041;-74
2022/05/07 08:45:28;;;;;;;22.70;18.98;;;16.50;99.90;;;;;;5032150;28;20041;-74
2022/05/07 08:47:53;;;;;;;22.80;18.40;;;16.70;99.90;;;;;;5049816;28;20048;-74
2022/05/07 08:50:21;;;;;;;22.98;19.00;;;16.70;99.90;;;;;;5051377;28;20481;-75
2022/05/07 08:52:47;;;;;;;24.70;20.42;;;16.60;99.90;;;;;;5033998;28;20045;-74
2022/05/07 08:55:14;;;;;;;24.02;20.90;;;16.60;99.90;;;;;;5049293;28;20098;-74
2022/05/07 08:57:42;;;;;;;23.85;19.17;;;16.60;99.90;;;;;;5049880;28;20158;-74
2022/05/07 09:00:09;;;;;;;23.20;18.42;;;16.60;99.90;;;;;;5050652;28;20041;-74
2022/05/07 09:02:47;;;;;;;19.42;17.15;;;16.50;99.90;;;;;;5050667;28;20474;-74
2022/05/07 09:05:18;;;;;;;23.00;19.45;;;16.50;99.90;;;;;;5050501;28;20386;-74
2022/05/07 09:07:57;;;;;;;20.38;16.77;;;16.60;99.90;;;;;;5050067;28;20055;-75
2022/05/07 09:10:27;;;;;;;21.60;17.50;;;16.60;99.90;;;;;;5054490;28;20489;-75
2022/05/07 09:12:54;;;;;;;21.15;16.60;;;16.80;99.90;;;;;;5050108;28;20044;-74
2022/05/07 09:15:19;;;;;;;20.27;16.33;;;16.80;99.90;;;;;;5035738;28;20040;-74
2022/05/07 09:17:47;;;;;;;21.20;18.17;;;16.80;99.90;;;;;;5048086;28;20493;-75
2022/05/07 09:20:18;;;;;;;21.85;18.92;;;16.80;99.90;;;;;;5040126;28;20127;-74
2022/05/07 09:22:47;;;;;;;22.63;19.40;;;16.90;99.90;;;;;;5034211;28;20049;-74
2022/05/07 09:25:19;;;;;;;24.67;19.10;;;17.00;99.90;;;;;;5049743;28;20049;-74
2022/05/07 09:27:46;;;;;;;23.77;19.95;;;16.90;99.90;;;;;;5033459;28;20037;-74
2022/05/07 09:30:12;;;;;;;22.85;18.92;;;17.00;99.90;;;;;;5046710;28;20497;-74
2022/05/07 09:32:38;;;;;;;22.73;18.90;;;16.90;99.90;;;;;;5057173;28;20140;-74
2022/05/07 09:38:02;;;;;;;22.40;17.88;;;16.90;99.90;;;;;;5045672;28;20118;-74
2022/05/07 09:40:29;;;;;;;21.98;17.63;;;17.00;99.90;;;;;;5037777;28;20033;-74
2022/05/07 09:42:57;;;;;;;23.10;17.73;;;17.10;99.90;;;;;;5056139;28;20405;-74
2022/05/07 09:45:27;;;;;;;18.38;15.48;;;17.10;99.90;;;;;;5060155;28;20043;-74
2022/05/07 09:48:00;;;;;;;18.13;15.25;;;17.10;99.90;;;;;;5031333;28;20116;-75
2022/05/07 09:58:33;;;;;;;21.35;18.88;;;17.50;99.90;;;;;;5052734;28;20049;-74
2022/05/07 10:01:20;;;;;;;24.58;20.58;;;17.60;99.90;;;;;;5054212;28;20037;-74
2022/05/07 10:04:09;;;;;;;26.70;20.48;;;17.50;99.90;;;;;;5036033;28;20091;-74
2022/05/07 10:06:41;;;;;;;22.23;19.50;;;17.50;99.90;;;;;;5036156;28;20134;-74
2022/05/07 10:09:25;;;;;;;24.25;19.65;;;17.60;99.90;;;;;;5034843;28;20041;-74
2022/05/07 10:11:53;;;;;;;23.33;19.85;;;17.70;99.90;;;;;;5030542;28;20080;-76
2022/05/07 10:14:31;;;;;;;21.35;19.05;;;17.70;99.90;;;;;;5052766;28;20037;-73
2022/05/07 10:17:01;;;;;;;21.95;18.67;;;17.70;99.90;;;;;;5053181;28;20037;-73
2022/05/07 10:19:46;;;;;;;28.92;20.20;;;17.70;99.90;;;;;;5036865;28;20029;-73
2022/05/07 10:22:24;;;;;;;26.33;19.95;;;17.70;99.90;;;;;;5036973;28;20497;-73
2022/05/07 10:25:09;;;;;;;23.02;18.40;;;17.70;99.90;;;;;;5036814;28;20044;-73
2022/05/07 10:27:41;;;;;;;21.08;17.70;;;17.80;99.90;;;;;;5044608;28;20121;-73
2022/05/07 10:30:15;;;;;;;22.48;16.88;;;17.80;99.90;;;;;;5035991;28;20469;-73
2022/05/07 10:33:04;;;;;;;24.73;17.25;;;17.90;99.90;;;;;;5052599;28;20048;-73
2022/05/07 10:35:49;;;;;;;20.27;16.20;;;17.90;99.90;;;;;;5051552;28;20052;-72
2022/05/07 10:38:26;;;;;;;23.58;17.25;;;17.90;99.90;;;;;;5070110;28;20044;-73
2022/05/07 10:40:56;;;;;;;25.33;17.63;;;17.90;99.90;;;;;;5035999;28;20040;-75
2022/05/07 10:43:32;;;;;;;21.73;15.77;;;17.70;99.90;;;;;;5048667;28;20049;-80
2022/05/07 10:46:05;;;;;;;19.80;14.50;;;17.80;99.90;;;;;;5033404;28;20052;-80
2022/05/07 10:48:53;;;;;;;19.45;15.10;;;17.70;99.90;;;;;;5036272;28;20033;-80
2022/05/07 10:51:32;;;;;;;19.75;15.15;;;17.80;99.90;;;;;;5036227;28;20079;-80
2022/05/07 10:54:03;;;;;;;21.70;16.48;;;17.80;99.90;;;;;;5036280;28;20090;-79
2022/05/07 10:56:34;;;;;;;24.67;16.13;;;17.80;99.90;;;;;;5036583;28;20501;-74
2022/05/07 10:59:01;;;;;;;18.33;15.00;;;18.00;99.90;;;;;;5068032;28;20094;-73
2022/05/07 11:01:29;;;;;;;24.15;20.27;;;17.90;99.90;;;;;;5048339;28;20049;-73
2022/05/07 11:04:05;;;;;;;30.55;23.17;;;17.90;99.90;;;;;;5051534;28;20045;-73
2022/05/07 11:06:48;;;;;;;32.33;25.65;;;17.90;99.90;;;;;;5051583;28;20037;-72
2022/05/07 11:09:22;;;;;;;37.00;28.15;;;18.10;99.90;;;;;;5036161;28;20120;-73
2022/05/07 11:11:54;;;;;;;35.92;27.77;;;18.20;99.90;;;;;;5043902;28;20044;-73
2022/05/07 11:14:35;;;;;;;29.75;25.52;;;18.20;99.90;;;;;;5044681;28;20037;-73
2022/05/07 11:17:04;;;;;;;34.20;26.97;;;18.00;99.90;;;;;;5049484;28;20488;-73
2022/05/07 11:19:34;;;;;;;31.73;27.98;;;18.20;99.90;;;;;;5043225;28;20044;-73
2022/05/07 11:22:02;;;;;;;32.90;27.75;;;18.20;99.90;;;;;;5035310;28;20037;-73
2022/05/07 11:24:32;;;;;;;31.70;26.15;;;18.30;99.90;;;;;;5068554;28;20044;-73
2022/05/07 11:27:05;;;;;;;33.15;24.35;;;18.10;99.90;;;;;;5052534;28;20063;-73
2022/05/07 11:29:32;;;;;;;28.67;23.67;;;18.10;99.90;;;;;;5051832;28;20037;-72
2022/05/07 11:31:57;;;;;;;28.88;22.10;;;18.10;99.90;;;;;;5051835;28;20037;-73
2022/05/07 11:34:33;;;;;;;29.48;23.25;;;18.20;99.90;;;;;;5031383;28;20052;-73
2022/05/07 11:37:19;;;;;;;27.02;21.27;;;17.90;99.90;;;;;;5048437;28;20086;-73
2022/05/07 11:39:51;;;;;;;26.90;23.30;;;17.90;99.90;;;;;;5068255;28;20091;-72
2022/05/07 11:42:33;;;;;;;31.10;24.02;;;17.90;99.90;;;;;;5036671;28;20083;-73
2022/05/07 11:48:09;;;;;;;28.92;22.58;;;17.90;99.90;;;;;;5061862;28;20046;-73
2022/05/07 11:50:42;;;;;;;26.77;22.00;;;18.00;99.90;;;;;;5040761;28;20029;-73
2022/05/07 11:53:11;;;;;;;32.28;25.23;;;18.00;99.90;;;;;;5052714;28;20055;-73
2022/05/07 11:55:37;;;;;;;27.90;24.02;;;18.10;99.90;;;;;;5052134;28;20058;-73
2022/05/07 11:58:12;;;;;;;28.33;23.02;;;18.10;99.90;;;;;;5052217;28;20485;-73
2022/05/07 12:00:43;;;;;;;33.85;24.60;;;18.20;99.90;;;;;;5051097;28;20064;-73
2022/05/07 12:03:10;;;;;;;32.50;24.38;;;18.30;99.90;;;;;;5052450;28;20055;-77
2022/05/07 12:05:41;;;;;;;31.10;25.00;;;18.30;99.90;;;;;;5035289;28;20044;-84
2022/05/07 12:08:19;;;;;;;33.00;25.40;;;18.30;99.90;;;;;;5049616;28;20120;-84
2022/05/07 12:10:46;;;;;;;34.85;26.27;;;18.20;99.90;;;;;;5040263;28;20488;-84
2022/05/07 12:13:16;;;;;;;33.05;23.90;;;18.30;99.90;;;;;;5033766;28;20072;-84
2022/05/07 12:18:27;;;;;;;32.40;24.13;;;18.30;99.90;;;;;;5068571;28;20049;-83
2022/05/07 12:20:54;;;;;;;33.17;23.75;;;18.20;99.90;;;;;;5035159;28;20037;-83
2022/05/07 12:31:33;;;;;;;34.03;23.40;;;18.00;99.90;;;;;;5051026;28;20041;-81
2022/05/07 12:33:59;;;;;;;28.45;21.15;;;18.10;99.90;;;;;;5050513;28;20147;-81
2022/05/07 12:36:26;;;;;;;28.65;20.25;;;18.20;99.90;;;;;;5026769;28;20454;-80
2022/05/07 12:38:52;;;;;;;24.48;17.25;;;18.30;99.90;;;;;;5023106;28;20508;-80
2022/05/07 12:41:18;;;;;;;25.65;19.40;;;18.30;99.90;;;;;;5051393;28;20045;-78
2022/05/07 12:43:44;;;;;;;25.00;17.85;;;18.40;99.90;;;;;;5019743;28;20547;-78
2022/05/07 12:46:10;;;;;;;28.85;19.13;;;18.40;99.90;;;;;;5053692;28;20033;-86
2022/05/07 12:48:36;;;;;;;27.08;18.10;;;18.40;99.90;;;;;;5051481;28;20048;-87
2022/05/07 12:51:02;;;;;;;24.23;17.65;;;18.60;99.90;;;;;;5050034;28;20036;-87
2022/05/07 12:53:27;;;;;;;23.42;18.90;;;18.40;99.90;;;;;;5034608;28;20037;-87
2022/05/07 12:55:53;;;;;;;25.60;17.98;;;18.30;99.90;;;;;;5034104;28;20444;-87
2022/05/07 12:58:18;;;;;;;26.35;18.20;;;18.30;99.90;;;;;;5051694;28;20400;-86
2022/05/07 13:00:44;;;;;;;21.42;15.63;;;18.20;99.90;;;;;;5033392;28;20048;-87
2022/05/07 13:03:10;;;;;;;18.80;13.38;;;18.00;99.90;;;;;;5033662;28;20404;-83
2022/05/07 13:05:37;;;;;;;16.27;11.88;;;17.80;99.90;;;;;;5033945;28;20041;-83
2022/05/07 13:08:05;;;;;;;18.08;11.98;;;17.80;99.90;;;;;;5034989;28;20048;-84
2022/05/07 13:10:32;;;;;;;16.92;11.95;;;17.70;99.90;;;;;;5050596;28;20439;-84
2022/05/07 13:12:59;;;;;;;18.10;12.02;;;17.80;99.90;;;;;;5033743;28;20072;-83
2022/05/07 13:15:31;;;;;;;16.33;11.18;;;17.80;99.90;;;;;;5034468;28;20493;-85